createdAt,value
2019-01-09T00:02:54.338Z,101071.84
2019-01-09T00:07:51.934Z,101074.75
2019-01-09T00:12:50.271Z,101085.81
2019-01-09T00:17:48.969Z,101085.61
2019-01-09T00:22:46.259Z,101077.72
2019-01-09T00:27:43.742Z,101084.44
2019-01-09T00:32:40.576Z,101078.45
2019-01-09T00:37:39.491Z,101077.25
2019-01-09T00:42:36.346Z,101070.84
2019-01-09T00:47:33.454Z,101071.23
2019-01-09T00:52:31.805Z,101072.71
2019-01-09T00:57:29.493Z,101058.41
2019-01-09T01:03:48.575Z,101062.41
2019-01-09T01:09:46.552Z,101072.98
2019-01-09T01:15:11.925Z,101077.70
2019-01-09T01:21:11.148Z,101083.50
2019-01-09T01:26:38.450Z,101090.02
2019-01-09T01:32:17.998Z,101090.91
2019-01-09T01:38:24.606Z,101105.95
2019-01-09T01:44:20.904Z,101081.74
2019-01-09T01:50:31.311Z,101097.63
2019-01-09T01:56:34.075Z,101094.99
2019-01-09T02:02:39.144Z,101087.00
2019-01-09T02:08:27.793Z,101085.16
2019-01-09T02:13:40.565Z,101090.23
2019-01-09T02:19:17.046Z,101101.63
2019-01-09T02:25:38.655Z,101097.53
2019-01-09T02:31:21.573Z,101095.38
2019-01-09T02:36:19.491Z,101090.25
2019-01-09T02:41:16.664Z,101095.22
2019-01-09T02:46:17.696Z,101096.15
2019-01-09T02:51:15.681Z,101093.46
2019-01-09T02:56:16.144Z,101093.46
2019-01-09T03:01:13.362Z,101094.83
2019-01-09T03:06:10.862Z,101096.25
2019-01-09T03:11:09.317Z,101094.06
2019-01-09T03:16:06.089Z,101092.75
2019-01-09T03:21:04.812Z,101098.11
2019-01-09T03:26:01.402Z,101090.08
2019-01-09T03:30:59.888Z,101104.34
2019-01-09T03:35:59.142Z,101110.09
2019-01-09T03:40:56.645Z,101099.73
2019-01-09T03:45:54.949Z,101108.59
2019-01-09T03:50:52.150Z,101113.84
2019-01-09T03:55:50.352Z,101110.05
2019-01-09T04:00:47.452Z,101109.88
2019-01-09T04:05:47.028Z,101107.13
2019-01-09T04:10:43.831Z,101098.72
2019-01-09T04:15:40.484Z,101108.72
2019-01-09T04:20:36.912Z,101104.06
2019-01-09T04:25:33.720Z,101106.00
2019-01-09T04:30:31.273Z,101105.36
2019-01-09T04:35:27.934Z,101098.05
2019-01-09T04:40:24.140Z,101110.55
2019-01-09T04:45:20.817Z,101115.50
2019-01-09T04:50:17.396Z,101109.64
2019-01-09T04:55:14.558Z,101100.98
2019-01-09T05:00:13.259Z,101108.97
2019-01-09T05:05:09.887Z,101115.30
2019-01-09T05:10:07.636Z,101121.59
2019-01-09T05:15:04.527Z,101114.02
2019-01-09T05:20:03.395Z,101103.48
2019-01-09T05:24:59.784Z,101110.55
2019-01-09T05:29:58.242Z,101105.98
2019-01-09T05:34:54.803Z,101133.53
2019-01-09T05:39:52.521Z,101134.19
2019-01-09T05:44:55.356Z,101143.17
2019-01-09T05:49:55.926Z,101136.21
2019-01-09T05:54:53.197Z,101136.42
2019-01-09T05:59:50.859Z,101125.32
2019-01-09T06:04:50.708Z,101112.84
2019-01-09T06:09:48.327Z,101109.88
2019-01-09T06:14:47.494Z,101101.63
2019-01-09T06:19:46.561Z,101105.66
2019-01-09T06:24:43.261Z,101114.97
2019-01-09T06:29:40.904Z,101116.20
2019-01-09T06:34:37.836Z,101117.38
2019-01-09T06:39:37.231Z,101123.98
2019-01-09T06:44:34.800Z,101118.08
2019-01-09T06:49:32.987Z,101131.53
2019-01-09T06:54:31.010Z,101140.84
2019-01-09T06:59:27.910Z,101148.02
2019-01-09T07:04:26.922Z,101159.06
2019-01-09T07:09:24.854Z,101166.66
2019-01-09T07:14:22.202Z,101165.86
2019-01-09T07:19:20.800Z,101171.62
2019-01-09T07:24:19.060Z,101176.80
2019-01-09T07:29:16.380Z,101184.05
2019-01-09T07:34:14.517Z,101187.66
2019-01-09T07:39:13.106Z,101185.84
2019-01-09T07:44:10.042Z,101188.44
2019-01-09T07:49:15.012Z,101187.03
2019-01-09T07:54:11.965Z,101205.55
2019-01-09T07:59:17.486Z,101198.95
2019-01-09T08:04:25.146Z,101194.25
2019-01-09T08:09:20.752Z,101191.05
2019-01-09T08:14:16.312Z,101190.59
2019-01-09T08:19:11.788Z,101191.76
2019-01-09T08:24:07.275Z,101191.58
2019-01-09T08:29:02.787Z,101206.67
2019-01-09T08:33:58.279Z,101208.34
2019-01-09T08:38:53.770Z,101204.28
2019-01-09T08:43:49.230Z,101210.08
2019-01-09T08:48:44.809Z,101224.38
2019-01-09T08:53:40.304Z,101210.72
2019-01-09T08:58:35.807Z,101215.84
2019-01-09T09:03:31.286Z,101224.20
2019-01-09T09:08:26.785Z,101256.87
2019-01-09T09:13:39.858Z,101249.16
2019-01-09T09:18:35.538Z,101260.47
2019-01-09T09:23:31.039Z,101265.75
2019-01-09T09:28:26.553Z,101269.33
2019-01-09T09:33:22.045Z,101287.07
2019-01-09T09:38:20.730Z,101276.09
2019-01-09T09:43:14.674Z,101288.45
2019-01-09T09:48:10.244Z,101293.66
2019-01-09T09:53:05.812Z,101295.78
2019-01-09T09:58:05.833Z,101292.13
2019-01-09T10:02:58.638Z,101300.67
2019-01-09T10:07:54.121Z,101313.03
2019-01-09T10:12:49.645Z,101306.23
2019-01-09T10:17:45.142Z,101309.39
2019-01-09T10:22:40.606Z,101305.46
2019-01-09T10:27:36.179Z,101305.55
2019-01-09T10:32:31.678Z,101299.48
2019-01-09T10:37:27.149Z,101294.45
2019-01-09T10:42:22.627Z,101296.39
2019-01-09T10:59:28.922Z,101302.21
2019-01-09T11:04:24.520Z,101298.17
2019-01-09T11:09:20.160Z,101305.17
2019-01-09T11:14:15.768Z,101301.20
2019-01-09T11:19:11.363Z,101299.45
2019-01-09T11:24:07.007Z,101294.23
2019-01-09T11:29:02.606Z,101296.75
2019-01-09T11:33:58.195Z,101296.36
2019-01-09T11:38:55.884Z,101289.09
2019-01-09T11:43:51.084Z,101283.30
2019-01-09T11:48:46.776Z,101295.33
2019-01-09T11:53:42.368Z,101281.03
2019-01-09T11:58:37.942Z,101281.81
2019-01-09T12:03:33.512Z,101275.28
2019-01-09T12:08:29.093Z,101274.20
2019-01-09T12:13:24.754Z,101269.00
2019-01-09T12:18:20.340Z,101265.25
2019-01-09T12:23:15.937Z,101262.30
2019-01-09T12:28:11.531Z,101265.14
2019-01-09T12:33:07.163Z,101279.01
2019-01-09T12:38:02.930Z,101263.66
2019-01-09T12:42:58.499Z,101266.52
2019-01-09T12:47:54.034Z,101264.15
2019-01-09T12:52:49.593Z,101270.03
2019-01-09T12:57:45.177Z,101262.30
2019-01-09T13:02:41.010Z,101271.02
2019-01-09T13:07:36.604Z,101281.50
2019-01-09T13:12:32.254Z,101289.81
2019-01-09T13:17:27.898Z,101292.57
2019-01-09T13:22:23.610Z,101290.09
2019-01-09T13:27:19.252Z,101296.54
2019-01-09T13:32:14.967Z,101301.76
2019-01-09T13:37:10.562Z,101315.23
2019-01-09T13:42:06.159Z,101318.84
2019-01-09T13:47:01.705Z,101328.66
2019-01-09T13:51:57.346Z,101330.66
2019-01-09T13:56:52.939Z,101319.88
2019-01-09T14:01:48.519Z,101331.75
2019-01-09T14:06:44.092Z,101332.77
2019-01-09T14:11:39.779Z,101335.36
2019-01-09T14:16:35.397Z,101351.86
2019-01-09T14:21:30.949Z,101334.28
2019-01-09T14:26:26.532Z,101336.56
2019-01-09T14:31:22.259Z,101332.48
2019-01-09T14:36:17.895Z,101342.39
2019-01-09T14:41:13.490Z,101339.11
2019-01-09T14:46:09.062Z,101331.67
2019-01-09T14:51:04.772Z,101339.11
2019-01-09T14:56:00.418Z,101344.67
2019-01-09T15:00:56.099Z,101356.89
2019-01-09T15:05:51.832Z,101358.34
2019-01-09T15:10:47.381Z,101367.72
2019-01-09T15:15:42.952Z,101372.20
2019-01-09T15:20:38.595Z,101372.86
2019-01-09T15:25:34.201Z,101385.98
2019-01-09T15:30:31.698Z,101398.31
2019-01-09T15:35:27.283Z,101397.73
2019-01-09T15:40:28.220Z,101408.70
2019-01-09T15:45:24.408Z,101417.38
2019-01-09T15:50:21.970Z,101428.14
2019-01-09T15:55:18.150Z,101427.97
2019-01-09T16:00:24.005Z,101429.36
2019-01-09T16:05:20.176Z,101421.56
2019-01-09T16:10:16.921Z,101419.52
2019-01-09T16:15:14.193Z,101422.73
2019-01-09T16:20:16.934Z,101423.97
2019-01-09T16:25:10.721Z,101431.22
2019-01-09T16:30:14.388Z,101440.97
2019-01-09T16:35:11.510Z,101451.90
2019-01-09T16:40:09.915Z,101448.84
2019-01-09T16:45:09.417Z,101450.70
2019-01-09T16:50:06.886Z,101459.30
2019-01-09T16:55:04.448Z,101464.44
2019-01-09T17:00:01.386Z,101468.66
2019-01-09T17:10:32.273Z,101475.97
2019-01-09T17:15:24.734Z,101476.33
2019-01-09T17:20:21.520Z,101484.19
2019-01-09T17:25:18.197Z,101498.02
2019-01-09T17:30:24.325Z,101497.26
2019-01-09T17:35:20.037Z,101497.45
2019-01-09T17:40:18.969Z,101501.50
2019-01-09T17:45:18.076Z,101509.69
2019-01-09T17:50:30.773Z,101502.94
2019-01-09T17:55:26.851Z,101509.20
2019-01-09T18:00:27.594Z,101520.04
2019-01-09T18:05:54.205Z,101529.14
2019-01-09T18:10:51.108Z,101526.67
2019-01-09T18:15:47.439Z,101536.43
2019-01-09T18:20:43.522Z,101544.52
2019-01-09T18:25:40.231Z,101536.64
2019-01-09T18:31:54.266Z,101556.88
